createdAt,value
2018-05-09T00:04:26.572Z,17.7
2018-05-09T00:09:21.071Z,17.7
2018-05-09T00:14:15.417Z,17.8
2018-05-09T00:19:10.068Z,17.7
2018-05-09T00:24:04.663Z,17.7
2018-05-09T00:28:59.441Z,17.6
2018-05-09T00:33:53.993Z,17.5
2018-05-09T00:38:48.704Z,17.5
2018-05-09T00:43:43.743Z,17.4
2018-05-09T00:48:38.420Z,17.4
2018-05-09T00:53:33.187Z,17.3
2018-05-09T00:58:27.268Z,17.4
2018-05-09T01:03:21.910Z,17.3
2018-05-09T01:08:16.455Z,17.2
2018-05-09T01:13:11.271Z,17.1
2018-05-09T01:18:05.820Z,17.1
2018-05-09T01:23:00.013Z,17
2018-05-09T01:27:55.148Z,17.1
2018-05-09T01:32:49.800Z,17
2018-05-09T01:37:44.299Z,17
2018-05-09T01:42:38.737Z,17
2018-05-09T01:47:33.141Z,17.1
2018-05-09T01:52:27.541Z,17
2018-05-09T01:57:21.936Z,16.9
2018-05-09T02:02:16.455Z,16.8
2018-05-09T02:07:11.488Z,16.8
2018-05-09T02:12:06.141Z,16.6
2018-05-09T02:17:00.687Z,16.4
2018-05-09T02:21:55.786Z,16.4
2018-05-09T02:26:49.950Z,16.4
2018-05-09T02:31:44.897Z,16.3
2018-05-09T02:36:39.257Z,16.2
2018-05-09T02:41:34.093Z,16.3
2018-05-09T02:46:28.580Z,16.3
2018-05-09T02:51:23.152Z,16.3
2018-05-09T02:56:17.552Z,16.2
2018-05-09T03:01:11.884Z,16.2
2018-05-09T03:06:06.764Z,16.1
2018-05-09T03:11:01.095Z,16.2
2018-05-09T03:15:56.137Z,16.2
2018-05-09T03:20:50.423Z,16
2018-05-09T03:25:44.755Z,16
2018-05-09T03:30:39.219Z,15.7
2018-05-09T03:35:34.027Z,15.7
2018-05-09T03:40:28.544Z,15.5
2018-05-09T03:45:22.795Z,15.3
2018-05-09T03:50:17.224Z,15.4
2018-05-09T03:55:11.692Z,15.3
2018-05-09T04:00:06.318Z,15.4
2018-05-09T04:05:00.301Z,15.4
2018-05-09T04:09:54.732Z,15.3
2018-05-09T04:14:49.153Z,15.3
2018-05-09T04:19:43.892Z,15.3
2018-05-09T04:24:38.789Z,15.2
2018-05-09T04:29:33.179Z,15.3
2018-05-09T04:34:28.311Z,15.4
2018-05-09T04:39:22.386Z,15.3
2018-05-09T04:44:16.263Z,15.3
2018-05-09T04:49:10.868Z,15.5
2018-05-09T04:54:05.244Z,15.5
2018-05-09T04:58:59.962Z,15.5
2018-05-09T05:03:54.762Z,15.6
2018-05-09T05:08:49.033Z,15.6
2018-05-09T05:13:43.957Z,15.7
2018-05-09T05:18:38.300Z,15.8
2018-05-09T05:23:32.753Z,15.9
2018-05-09T05:28:27.703Z,16
2018-05-09T05:33:21.921Z,15.9
2018-05-09T05:38:16.833Z,15.9
2018-05-09T05:43:10.975Z,16.1
2018-05-09T05:48:05.558Z,16.2
2018-05-09T05:52:59.915Z,16.3
2018-05-09T05:57:54.178Z,16.4
2018-05-09T06:02:48.661Z,16.4
2018-05-09T06:07:43.718Z,16.5
2018-05-09T06:12:38.683Z,16.5
2018-05-09T06:17:33.323Z,16.5
2018-05-09T06:22:27.766Z,16.7
2018-05-09T06:27:22.298Z,16.8
2018-05-09T06:32:17.282Z,16.8
2018-05-09T06:37:12.244Z,17
2018-05-09T06:42:06.871Z,17.2
2018-05-09T06:47:02.985Z,17.3
2018-05-09T06:51:58.788Z,17.3
2018-05-09T06:56:53.496Z,17.5
2018-05-09T07:01:48.352Z,17.7
2018-05-09T07:06:43.614Z,17.8
2018-05-09T07:11:38.198Z,17.9
2018-05-09T07:16:32.869Z,17.9
2018-05-09T07:21:28.025Z,17.9
2018-05-09T07:26:22.742Z,18.1
2018-05-09T07:31:17.626Z,18.2
2018-05-09T07:36:12.466Z,18.3
2018-05-09T07:41:06.759Z,18.4
2018-05-09T07:46:01.431Z,18.4
2018-05-09T07:50:55.664Z,18.6
2018-05-09T07:55:50.507Z,18.8
2018-05-09T08:00:45.211Z,18.9
2018-05-09T08:05:39.776Z,19
2018-05-09T08:10:34.554Z,19
2018-05-09T08:15:28.791Z,19.1
2018-05-09T08:20:23.779Z,19.3
2018-05-09T08:25:18.918Z,19.4
2018-05-09T08:30:13.675Z,19.5
2018-05-09T08:35:08.748Z,19.6
2018-05-09T08:40:03.395Z,19.6
2018-05-09T08:44:58.255Z,19.7
2018-05-09T08:49:51.195Z,19.8
2018-05-09T08:54:45.659Z,19.9
2018-05-09T08:59:40.527Z,20
2018-05-09T09:04:35.327Z,20
2018-05-09T09:09:29.695Z,20.1
2018-05-09T09:14:24.625Z,20.3
2018-05-09T09:19:18.862Z,20.4
2018-05-09T09:24:13.558Z,20.5
2018-05-09T09:29:07.982Z,20.6
2018-05-09T09:34:02.870Z,20.7
2018-05-09T09:38:56.863Z,20.9
2018-05-09T09:43:51.996Z,21.1
2018-05-09T09:48:47.367Z,21.4
2018-05-09T09:53:42.192Z,21.7
2018-05-09T09:58:37.171Z,21.8
2018-05-09T10:03:31.866Z,22
2018-05-09T10:08:26.589Z,22.1
2018-05-09T10:13:21.694Z,22.3
2018-05-09T10:18:16.658Z,22.5
2018-05-09T10:23:11.579Z,22.5
2018-05-09T10:28:05.564Z,22.6
2018-05-09T10:33:00.127Z,22.7
2018-05-09T10:37:52.826Z,22.8
2018-05-09T10:42:47.681Z,22.7
2018-05-09T10:47:42.634Z,22.9
2018-05-09T10:52:36.783Z,22.9
2018-05-09T10:57:31.318Z,23
2018-05-09T11:02:24.920Z,23.1
2018-05-09T11:07:19.237Z,23.3
2018-05-09T11:12:14.367Z,23.4
2018-05-09T11:17:09.789Z,23.7
2018-05-09T11:22:03.914Z,23.8
2018-05-09T11:26:58.379Z,24
2018-05-09T11:31:52.912Z,24.3
2018-05-09T11:36:48.361Z,24.5
2018-05-09T11:41:43.018Z,24.6
2018-05-09T11:46:37.631Z,24.9
2018-05-09T11:51:32.475Z,25.1
2018-05-09T11:56:27.672Z,25.2
2018-05-09T12:01:22.049Z,25.5
2018-05-09T12:06:17.255Z,25.6
2018-05-09T12:11:11.601Z,25.8
2018-05-09T12:16:06.093Z,25.8
2018-05-09T12:21:01.480Z,26
2018-05-09T12:25:56.171Z,26
2018-05-09T12:30:50.832Z,26
2018-05-09T12:35:45.826Z,26.2
2018-05-09T12:40:40.944Z,26.2
2018-05-09T12:45:35.718Z,26.1
2018-05-09T12:50:30.837Z,26.1
2018-05-09T12:55:25.309Z,26.1
2018-05-09T13:00:20.042Z,26.2
2018-05-09T13:05:14.777Z,26.2
2018-05-09T13:10:09.571Z,26.2
2018-05-09T13:15:04.496Z,26.2
2018-05-09T13:19:58.898Z,26.2
2018-05-09T13:24:53.608Z,26.3
2018-05-09T13:29:48.377Z,26.4
2018-05-09T13:34:43.337Z,26.3
2018-05-09T13:39:38.195Z,26.6
2018-05-09T13:44:33.312Z,27.2
2018-05-09T13:49:29.042Z,27.7
2018-05-09T13:54:23.481Z,27.3
2018-05-09T13:59:17.394Z,26.9
2018-05-09T14:04:11.559Z,26.6
2018-05-09T14:09:04.107Z,26.2
2018-05-09T14:13:58.397Z,26.2
2018-05-09T14:18:53.349Z,26.1
2018-05-09T14:23:48.567Z,26.1
2018-05-09T14:28:43.665Z,26
2018-05-09T14:33:38.416Z,26.1
2018-05-09T14:38:32.973Z,26.1
2018-05-09T14:43:27.399Z,26
2018-05-09T14:48:21.900Z,25.9
2018-05-09T14:53:16.711Z,25.9
2018-05-09T14:58:10.728Z,25.9
2018-05-09T15:03:05.715Z,25.7
2018-05-09T15:08:00.140Z,25.4
2018-05-09T15:12:54.684Z,25.2
2018-05-09T15:17:49.339Z,25
2018-05-09T15:22:43.863Z,24.9
2018-05-09T15:27:38.366Z,24.9
2018-05-09T15:32:33.326Z,24.7
2018-05-09T15:37:27.925Z,24.7
2018-05-09T15:42:22.600Z,24.5
2018-05-09T15:47:17.115Z,24.5
2018-05-09T15:52:12.192Z,24.3
2018-05-09T15:57:06.457Z,24.3
2018-05-09T16:02:01.155Z,24.2
2018-05-09T16:06:55.597Z,24.2
2018-05-09T16:11:50.392Z,24.2
2018-05-09T16:16:45.265Z,24.3
2018-05-09T16:21:40.274Z,24.4
2018-05-09T16:26:35.596Z,24.4
2018-05-09T16:31:30.348Z,24.2
2018-05-09T16:36:25.425Z,24.1
2018-05-09T16:41:20.165Z,23.8
2018-05-09T16:46:14.740Z,23.7
2018-05-09T16:51:09.822Z,23.6
2018-05-09T16:56:04.789Z,23.5
2018-05-09T17:00:59.442Z,23.4
2018-05-09T17:05:54.103Z,23.4
2018-05-09T17:10:48.511Z,23.3
2018-05-09T17:15:43.375Z,23.2
2018-05-09T17:20:37.952Z,23.1
2018-05-09T17:25:32.768Z,23
2018-05-09T17:30:27.112Z,22.9
2018-05-09T17:35:21.450Z,22.9
2018-05-09T17:40:16.584Z,22.8
2018-05-09T17:45:11.633Z,22.8
2018-05-09T17:50:05.814Z,22.7
2018-05-09T17:55:00.962Z,22.6
2018-05-09T17:59:55.345Z,22.6
2018-05-09T18:04:49.585Z,22.5
2018-05-09T18:09:44.292Z,22.4
2018-05-09T18:14:38.870Z,22.3
2018-05-09T18:19:33.859Z,22.3
2018-05-09T18:24:28.171Z,22.3
2018-05-09T18:29:22.935Z,22.2
2018-05-09T18:34:17.797Z,22.2
2018-05-09T18:39:12.670Z,22.1
2018-05-09T18:44:07.670Z,22.1
2018-05-09T18:49:01.890Z,22
2018-05-09T18:53:57.002Z,22
2018-05-09T18:58:51.249Z,21.9
2018-05-09T19:03:45.678Z,21.8
2018-05-09T19:08:40.692Z,21.8
2018-05-09T19:13:35.640Z,21.7
2018-05-09T19:18:29.807Z,21.7
2018-05-09T19:23:24.820Z,21.6
2018-05-09T19:28:19.300Z,21.6
2018-05-09T19:33:13.807Z,21.6
2018-05-09T19:38:08.836Z,21.6
2018-05-09T19:43:03.928Z,21.5
2018-05-09T19:47:58.473Z,21.5
2018-05-09T19:52:52.685Z,21.4
2018-05-09T19:57:47.182Z,21.4
2018-05-09T20:02:42.226Z,21.2
2018-05-09T20:07:36.726Z,21.2
2018-05-09T20:12:31.787Z,21.1
2018-05-09T20:17:25.960Z,21
2018-05-09T20:22:20.441Z,20.9
2018-05-09T20:27:19.745Z,20.9
2018-05-09T20:32:13.250Z,20.8
2018-05-09T20:37:07.272Z,20.8
2018-05-09T20:42:02.359Z,20.6
2018-05-09T20:46:56.826Z,20.7
2018-05-09T20:51:51.366Z,20.6
2018-05-09T20:56:45.982Z,20.5
2018-05-09T21:01:40.477Z,20.5
2018-05-09T21:06:35.119Z,20.4
2018-05-09T21:11:29.522Z,20.3
2018-05-09T21:16:24.454Z,20.4
2018-05-09T21:21:18.710Z,20.3
2018-05-09T21:26:13.166Z,20.3
2018-05-09T21:31:07.574Z,20.3
2018-05-09T21:36:02.720Z,20.2
2018-05-09T21:40:56.994Z,20.2
2018-05-09T21:45:51.503Z,20.2
2018-05-09T21:50:46.353Z,20.1
2018-05-09T21:55:41.074Z,20.1
2018-05-09T22:00:35.777Z,20.1
2018-05-09T22:05:30.106Z,20.1
2018-05-09T22:10:25.114Z,20
2018-05-09T22:15:19.725Z,20
2018-05-09T22:20:14.598Z,20.1
2018-05-09T22:25:08.945Z,20
2018-05-09T22:30:03.523Z,19.9
2018-05-09T22:34:58.574Z,19.8
2018-05-09T22:39:52.897Z,19.9
2018-05-09T22:44:47.980Z,19.8
2018-05-09T22:49:42.395Z,19.7
2018-05-09T22:54:37.047Z,19.7
2018-05-09T22:59:32.056Z,19.7
2018-05-09T23:04:26.099Z,19.6
2018-05-09T23:09:21.000Z,19.4
2018-05-09T23:14:15.340Z,19.4
2018-05-09T23:19:09.990Z,19.4
2018-05-09T23:24:04.574Z,19.5
2018-05-09T23:28:59.169Z,19.4
2018-05-09T23:33:53.647Z,19.4
2018-05-09T23:38:48.358Z,19.4
2018-05-09T23:43:42.642Z,19.3
2018-05-09T23:48:37.491Z,19.4
2018-05-09T23:53:31.920Z,19.4
2018-05-09T23:58:26.514Z,19.3
